sensor_id;sensor_type;location;lat;lon;timestamp;pressure;altitude;pressure_sealevel;temperature;humidity
40490;BME280;26196;52.302;10.572;2022-08-21T00:02:54;100761.22;;;24.00;45.08
40490;BME280;26196;52.302;10.572;2022-08-21T00:06:56;100751.78;;;23.96;45.08
40490;BME280;26196;52.302;10.572;2022-08-21T00:10:57;100750.31;;;23.92;45.16
40490;BME280;26196;52.302;10.572;2022-08-21T00:14:58;100743.50;;;23.88;45.21
40490;BME280;26196;52.302;10.572;2022-08-21T00:18:58;100739.13;;;23.87;45.07
40490;BME280;26196;52.302;10.572;2022-08-21T00:22:59;100737.53;;;23.85;45.11
40490;BME280;26196;52.302;10.572;2022-08-21T00:27:00;100741.31;;;23.82;45.06
40490;BME280;26196;52.302;10.572;2022-08-21T00:31:01;100741.66;;;23.77;44.98
40490;BME280;26196;52.302;10.572;2022-08-21T00:35:06;100745.31;;;23.76;44.99
40490;BME280;26196;52.302;10.572;2022-08-21T00:39:08;100746.31;;;23.75;45.09
40490;BME280;26196;52.302;10.572;2022-08-21T00:43:11;100746.41;;;23.74;45.00
40490;BME280;26196;52.302;10.572;2022-08-21T00:47:13;100745.69;;;23.72;44.77
40490;BME280;26196;52.302;10.572;2022-08-21T00:51:17;100744.22;;;23.68;44.89
40490;BME280;26196;52.302;10.572;2022-08-21T00:55:23;100737.03;;;23.68;44.70
40490;BME280;26196;52.302;10.572;2022-08-21T00:59:25;100738.13;;;23.66;44.69
40490;BME280;26196;52.302;10.572;2022-08-21T01:03:26;100741.78;;;23.65;44.54
40490;BME280;26196;52.302;10.572;2022-08-21T01:07:27;100740.06;;;23.64;44.46
40490;BME280;26196;52.302;10.572;2022-08-21T01:11:27;100740.31;;;23.61;44.53
40490;BME280;26196;52.302;10.572;2022-08-21T01:15:32;100735.94;;;23.59;44.47
40490;BME280;26196;52.302;10.572;2022-08-21T01:19:33;100736.28;;;23.55;44.49
40490;BME280;26196;52.302;10.572;2022-08-21T01:23:36;100717.59;;;23.44;44.32
40490;BME280;26196;52.302;10.572;2022-08-21T01:27:37;100727.53;;;23.53;44.40
40490;BME280;26196;52.302;10.572;2022-08-21T01:31:39;100722.69;;;23.47;44.41
40490;BME280;26196;52.302;10.572;2022-08-21T01:35:39;100732.41;;;23.48;44.29
40490;BME280;26196;52.302;10.572;2022-08-21T01:39:42;100733.47;;;23.45;44.48
40490;BME280;26196;52.302;10.572;2022-08-21T01:43:43;100729.81;;;23.46;44.40
40490;BME280;26196;52.302;10.572;2022-08-21T01:47:44;100730.06;;;23.43;44.63
40490;BME280;26196;52.302;10.572;2022-08-21T01:51:44;100737.38;;;23.41;44.57
40490;BME280;26196;52.302;10.572;2022-08-21T01:55:45;100723.53;;;23.36;44.51
40490;BME280;26196;52.302;10.572;2022-08-21T01:59:46;100735.16;;;23.35;44.56
40490;BME280;26196;52.302;10.572;2022-08-21T02:03:46;100738.81;;;23.34;44.79
40490;BME280;26196;52.302;10.572;2022-08-21T02:07:49;100726.66;;;23.30;44.72
40490;BME280;26196;52.302;10.572;2022-08-21T02:11:50;100726.53;;;23.31;44.83
40490;BME280;26196;52.302;10.572;2022-08-21T02:15:51;100723.47;;;23.25;44.24
40490;BME280;26196;52.302;10.572;2022-08-21T02:19:54;100730.53;;;23.26;44.48
40490;BME280;26196;52.302;10.572;2022-08-21T02:23:54;100737.81;;;23.24;44.14
40490;BME280;26196;52.302;10.572;2022-08-21T02:27:55;100728.22;;;23.21;44.01
40490;BME280;26196;52.302;10.572;2022-08-21T02:31:55;100721.41;;;23.17;43.53
40490;BME280;26196;52.302;10.572;2022-08-21T02:35:57;100718.13;;;23.13;43.64
40490;BME280;26196;52.302;10.572;2022-08-21T02:39:59;100714.84;;;23.10;43.59
40490;BME280;26196;52.302;10.572;2022-08-21T02:44:00;100717.63;;;23.08;43.87
40490;BME280;26196;52.302;10.572;2022-08-21T02:48:08;100713.13;;;23.09;43.53
40490;BME280;26196;52.302;10.572;2022-08-21T02:52:08;100719.56;;;23.06;43.41
40490;BME280;26196;52.302;10.572;2022-08-21T02:56:12;100717.88;;;23.05;43.65
40490;BME280;26196;52.302;10.572;2022-08-21T03:00:14;100723.22;;;23.05;43.47
40490;BME280;26196;52.302;10.572;2022-08-21T03:04:15;100727.91;;;23.02;43.69
40490;BME280;26196;52.302;10.572;2022-08-21T03:08:16;100718.44;;;22.98;43.43
40490;BME280;26196;52.302;10.572;2022-08-21T03:12:17;100718.31;;;22.99;43.32
40490;BME280;26196;52.302;10.572;2022-08-21T03:16:17;100720.28;;;22.97;43.58
40490;BME280;26196;52.302;10.572;2022-08-21T03:20:22;100719.59;;;22.93;43.34
40490;BME280;26196;52.302;10.572;2022-08-21T03:24:23;100715.34;;;22.91;43.45
40490;BME280;26196;52.302;10.572;2022-08-21T03:28:24;100717.91;;;22.92;43.44
40490;BME280;26196;52.302;10.572;2022-08-21T03:32:26;100716.56;;;22.87;44.01
40490;BME280;26196;52.302;10.572;2022-08-21T03:36:26;100713.91;;;22.87;43.63
40490;BME280;26196;52.302;10.572;2022-08-21T03:40:27;100712.16;;;22.86;43.86
40490;BME280;26196;52.302;10.572;2022-08-21T03:44:27;100716.06;;;22.82;43.38
40490;BME280;26196;52.302;10.572;2022-08-21T03:48:31;100714.34;;;22.81;43.32
40490;BME280;26196;52.302;10.572;2022-08-21T03:52:31;100717.13;;;22.79;43.59
40490;BME280;26196;52.302;10.572;2022-08-21T03:56:32;100722.72;;;22.76;43.29
40490;BME280;26196;52.302;10.572;2022-08-21T04:00:32;100720.16;;;22.75;43.82
40490;BME280;26196;52.302;10.572;2022-08-21T04:04:33;100714.06;;;22.72;43.73
40490;BME280;26196;52.302;10.572;2022-08-21T04:08:34;100721.31;;;22.70;43.59
40490;BME280;26196;52.302;10.572;2022-08-21T04:12:35;100723.28;;;22.68;43.74
40490;BME280;26196;52.302;10.572;2022-08-21T04:16:35;100726.78;;;22.69;43.81
40490;BME280;26196;52.302;10.572;2022-08-21T04:20:36;100732.22;;;22.67;43.36
40490;BME280;26196;52.302;10.572;2022-08-21T04:24:37;100730.25;;;22.58;44.63
40490;BME280;26196;52.302;10.572;2022-08-21T04:28:37;100728.53;;;22.57;43.74
40490;BME280;26196;52.302;10.572;2022-08-21T04:32:45;100737.53;;;22.56;43.90
40490;BME280;26196;52.302;10.572;2022-08-21T04:36:46;100729.00;;;22.51;44.08
40490;BME280;26196;52.302;10.572;2022-08-21T04:40:48;100729.63;;;22.55;43.91
40490;BME280;26196;52.302;10.572;2022-08-21T04:44:48;100737.84;;;22.52;44.22
40490;BME280;26196;52.302;10.572;2022-08-21T04:48:49;100741.72;;;22.47;44.67
40490;BME280;26196;52.302;10.572;2022-08-21T04:52:50;100743.31;;;22.50;43.48
40490;BME280;26196;52.302;10.572;2022-08-21T04:56:56;100739.25;;;22.44;44.61
40490;BME280;26196;52.302;10.572;2022-08-21T05:01:00;100750.16;;;22.41;45.36
40490;BME280;26196;52.302;10.572;2022-08-21T05:05:01;100744.81;;;22.41;44.53
40490;BME280;26196;52.302;10.572;2022-08-21T05:09:03;100747.63;;;22.40;44.59
40490;BME280;26196;52.302;10.572;2022-08-21T05:13:06;100749.53;;;22.38;44.57
40490;BME280;26196;52.302;10.572;2022-08-21T05:17:07;100747.22;;;22.33;44.87
40490;BME280;26196;52.302;10.572;2022-08-21T05:21:07;100746.47;;;22.31;44.96
40490;BME280;26196;52.302;10.572;2022-08-21T05:25:09;100753.63;;;22.31;45.19
40490;BME280;26196;52.302;10.572;2022-08-21T05:29:10;100754.69;;;22.28;44.99
40490;BME280;26196;52.302;10.572;2022-08-21T05:33:11;100766.19;;;22.28;44.61
40490;BME280;26196;52.302;10.572;2022-08-21T05:37:11;100759.41;;;22.24;44.98
40490;BME280;26196;52.302;10.572;2022-08-21T05:41:12;100766.66;;;22.22;46.06
40490;BME280;26196;52.302;10.572;2022-08-21T05:45:12;100770.28;;;22.21;45.29
40490;BME280;26196;52.302;10.572;2022-08-21T05:49:13;100770.47;;;22.18;45.44
40490;BME280;26196;52.302;10.572;2022-08-21T05:53:14;100764.97;;;22.21;45.38
40490;BME280;26196;52.302;10.572;2022-08-21T05:57:16;100769.53;;;22.19;45.88
40490;BME280;26196;52.302;10.572;2022-08-21T06:01:16;100765.25;;;22.17;45.51
40490;BME280;26196;52.302;10.572;2022-08-21T06:05:17;100765.13;;;22.18;45.94
40490;BME280;26196;52.302;10.572;2022-08-21T06:09:17;100766.19;;;22.16;46.13
40490;BME280;26196;52.302;10.572;2022-08-21T06:13:18;100759.16;;;22.15;45.71
40490;BME280;26196;52.302;10.572;2022-08-21T06:17:19;100765.34;;;22.15;45.53
40490;BME280;26196;52.302;10.572;2022-08-21T06:21:20;100766.31;;;22.14;46.12
40490;BME280;26196;52.302;10.572;2022-08-21T06:25:21;100747.88;;;22.11;45.99
40490;BME280;26196;52.302;10.572;2022-08-21T06:29:22;100753.22;;;22.11;46.39
40490;BME280;26196;52.302;10.572;2022-08-21T06:33:23;100761.94;;;22.13;46.48
40490;BME280;26196;52.302;10.572;2022-08-21T06:37:23;100760.47;;;22.09;46.66
40490;BME280;26196;52.302;10.572;2022-08-21T06:41:24;100751.50;;;22.10;46.57
40490;BME280;26196;52.302;10.572;2022-08-21T06:45:25;100754.16;;;22.10;46.18
40490;BME280;26196;52.302;10.572;2022-08-21T06:49:25;100746.38;;;22.07;47.01
40490;BME280;26196;52.302;10.572;2022-08-21T06:53:26;100731.38;;;22.06;46.40
40490;BME280;26196;52.302;10.572;2022-08-21T06:57:27;100738.28;;;22.09;46.09
40490;BME280;26196;52.302;10.572;2022-08-21T07:01:27;100736.56;;;22.07;46.52
40490;BME280;26196;52.302;10.572;2022-08-21T07:05:29;100734.75;;;22.08;46.80
40490;BME280;26196;52.302;10.572;2022-08-21T07:09:30;100747.97;;;22.10;46.24
40490;BME280;26196;52.302;10.572;2022-08-21T07:13:30;100741.91;;;22.07;46.11
40490;BME280;26196;52.302;10.572;2022-08-21T07:17:31;100734.88;;;22.06;46.38
40490;BME280;26196;52.302;10.572;2022-08-21T07:21:32;100735.72;;;22.07;46.33
40490;BME280;26196;52.302;10.572;2022-08-21T07:25:32;100733.81;;;22.09;46.71
40490;BME280;26196;52.302;10.572;2022-08-21T07:29:32;100732.09;;;22.08;46.46
40490;BME280;26196;52.302;10.572;2022-08-21T07:33:34;100731.25;;;22.07;45.86
40490;BME280;26196;52.302;10.572;2022-08-21T07:37:34;100724.22;;;22.06;46.75
40490;BME280;26196;52.302;10.572;2022-08-21T07:41:35;100720.47;;;22.09;46.28
40490;BME280;26196;52.302;10.572;2022-08-21T07:45:35;100711.00;;;22.05;47.00
40490;BME280;26196;52.302;10.572;2022-08-21T07:49:36;100708.97;;;22.09;46.57
40490;BME280;26196;52.302;10.572;2022-08-21T07:53:37;100710.75;;;22.08;46.71
40490;BME280;26196;52.302;10.572;2022-08-21T07:57:38;100715.25;;;22.07;46.65
40490;BME280;26196;52.302;10.572;2022-08-21T08:01:39;100714.31;;;22.09;46.29
40490;BME280;26196;52.302;10.572;2022-08-21T08:05:39;100710.75;;;22.08;46.28
40490;BME280;26196;52.302;10.572;2022-08-21T08:09:39;100707.16;;;22.09;46.27
40490;BME280;26196;52.302;10.572;2022-08-21T08:13:45;100693.69;;;22.11;46.35
40490;BME280;26196;52.302;10.572;2022-08-21T08:17:47;100703.28;;;22.13;46.52
40490;BME280;26196;52.302;10.572;2022-08-21T08:21:48;100714.69;;;22.15;46.13
40490;BME280;26196;52.302;10.572;2022-08-21T08:25:49;100728.03;;;22.15;46.16
40490;BME280;26196;52.302;10.572;2022-08-21T08:29:49;100709.38;;;22.15;46.20
40490;BME280;26196;52.302;10.572;2022-08-21T08:33:50;100694.22;;;22.16;46.11
40490;BME280;26196;52.302;10.572;2022-08-21T08:37:51;100696.88;;;22.16;46.41
40490;BME280;26196;52.302;10.572;2022-08-21T08:46:12;100698.47;;;22.18;46.64
40490;BME280;26196;52.302;10.572;2022-08-21T08:50:22;100680.50;;;22.09;46.79
40490;BME280;26196;52.302;10.572;2022-08-21T08:54:37;100703.75;;;22.20;46.49
40490;BME280;26196;52.302;10.572;2022-08-21T08:58:42;100703.50;;;22.23;46.53
40490;BME280;26196;52.302;10.572;2022-08-21T09:02:45;100693.69;;;22.23;46.67
40490;BME280;26196;52.302;10.572;2022-08-21T09:11:15;100689.09;;;22.25;47.32
40490;BME280;26196;52.302;10.572;2022-08-21T09:15:32;100690.81;;;22.26;48.43
40490;BME280;26196;52.302;10.572;2022-08-21T09:28:19;100678.94;;;22.31;48.92
40490;BME280;26196;52.302;10.572;2022-08-21T09:32:25;100684.28;;;22.31;49.01
40490;BME280;26196;52.302;10.572;2022-08-21T09:36:33;100680.66;;;22.32;48.97
40490;BME280;26196;52.302;10.572;2022-08-21T09:44:40;100678.47;;;22.37;47.70
40490;BME280;26196;52.302;10.572;2022-08-21T09:48:50;100676.56;;;22.39;47.51
40490;BME280;26196;52.302;10.572;2022-08-21T09:52:55;100683.81;;;22.37;48.28
40490;BME280;26196;52.302;10.572;2022-08-21T09:57:00;100678.38;;;22.38;49.18
40490;BME280;26196;52.302;10.572;2022-08-21T10:01:22;100683.63;;;22.40;49.53
40490;BME280;26196;52.302;10.572;2022-08-21T10:05:26;100682.63;;;22.41;50.04
40490;BME280;26196;52.302;10.572;2022-08-21T10:09:27;100675.47;;;22.41;49.94
40490;BME280;26196;52.302;10.572;2022-08-21T10:30:52;100662.22;;;22.53;48.55
40490;BME280;26196;52.302;10.572;2022-08-21T10:35:08;100667.56;;;22.53;48.42
40490;BME280;26196;52.302;10.572;2022-08-21T10:43:45;100648.50;;;22.57;48.11
40490;BME280;26196;52.302;10.572;2022-08-21T10:47:57;100659.09;;;22.59;47.68
40490;BME280;26196;52.302;10.572;2022-08-21T10:56:54;100649.38;;;22.58;47.31
40490;BME280;26196;52.302;10.572;2022-08-21T11:01:07;100643.69;;;22.62;46.71
40490;BME280;26196;52.302;10.572;2022-08-21T11:05:20;100639.94;;;22.65;46.93
40490;BME280;26196;52.302;10.572;2022-08-21T11:09:25;100645.16;;;22.66;46.49
40490;BME280;26196;52.302;10.572;2022-08-21T11:13:58;100644.19;;;22.67;46.64
40490;BME280;26196;52.302;10.572;2022-08-21T11:18:43;100634.25;;;22.69;46.47
40490;BME280;26196;52.302;10.572;2022-08-21T11:26:51;100633.16;;;22.72;46.44
40490;BME280;26196;52.302;10.572;2022-08-21T11:31:16;100632.09;;;22.75;46.47
40490;BME280;26196;52.302;10.572;2022-08-21T11:35:58;100640.84;;;22.77;46.41
40490;BME280;26196;52.302;10.572;2022-08-21T11:52:49;100624.22;;;22.84;46.29
40490;BME280;26196;52.302;10.572;2022-08-21T11:57:02;100618.25;;;22.81;46.15
40490;BME280;26196;52.302;10.572;2022-08-21T12:01:11;100630.19;;;22.88;46.20
40490;BME280;26196;52.302;10.572;2022-08-21T12:05:51;100629.09;;;22.90;46.26
40490;BME280;26196;52.302;10.572;2022-08-21T12:09:56;100627.03;;;22.94;45.51
40490;BME280;26196;52.302;10.572;2022-08-21T12:14:21;100626.84;;;22.97;44.78
40490;BME280;26196;52.302;10.572;2022-08-21T12:18:28;100618.84;;;22.97;45.20
40490;BME280;26196;52.302;10.572;2022-08-21T12:22:38;100618.69;;;22.99;45.39
40490;BME280;26196;52.302;10.572;2022-08-21T12:26:57;100617.50;;;23.03;44.92
40490;BME280;26196;52.302;10.572;2022-08-21T12:30:58;100611.31;;;23.02;45.21
40490;BME280;26196;52.302;10.572;2022-08-21T12:35:21;100614.47;;;23.07;42.97
40490;BME280;26196;52.302;10.572;2022-08-21T12:39:27;100598.69;;;23.04;43.44
40490;BME280;26196;52.302;10.572;2022-08-21T12:43:35;100599.56;;;23.05;42.93
40490;BME280;26196;52.302;10.572;2022-08-21T12:48:10;100599.41;;;23.06;42.37
40490;BME280;26196;52.302;10.572;2022-08-21T12:52:16;100602.09;;;23.06;42.38
40490;BME280;26196;52.302;10.572;2022-08-21T12:56:22;100602.81;;;23.08;43.04
40490;BME280;26196;52.302;10.572;2022-08-21T13:00:25;100595.66;;;23.09;43.90
40490;BME280;26196;52.302;10.572;2022-08-21T13:08:35;100590.22;;;23.10;43.86
40490;BME280;26196;52.302;10.572;2022-08-21T13:12:36;100588.38;;;23.11;44.08
40490;BME280;26196;52.302;10.572;2022-08-21T13:16:38;100578.53;;;23.11;44.02
40490;BME280;26196;52.302;10.572;2022-08-21T13:20:40;100592.63;;;23.13;44.19
40490;BME280;26196;52.302;10.572;2022-08-21T13:24:47;100585.34;;;23.15;43.50
40490;BME280;26196;52.302;10.572;2022-08-21T13:28:49;100581.72;;;23.17;44.15
40490;BME280;26196;52.302;10.572;2022-08-21T13:32:54;100583.38;;;23.18;44.13
40490;BME280;26196;52.302;10.572;2022-08-21T13:36:59;100580.72;;;23.18;44.03
40490;BME280;26196;52.302;10.572;2022-08-21T13:45:22;100586.53;;;23.23;44.47
40490;BME280;26196;52.302;10.572;2022-08-21T13:49:38;100581.09;;;23.24;43.94
40490;BME280;26196;52.302;10.572;2022-08-21T13:57:47;100582.56;;;23.28;44.11
40490;BME280;26196;52.302;10.572;2022-08-21T14:02:15;100577.09;;;23.30;44.22
40490;BME280;26196;52.302;10.572;2022-08-21T14:06:25;100574.31;;;23.31;44.09
40490;BME280;26196;52.302;10.572;2022-08-21T14:10:26;100579.50;;;23.33;43.87
40490;BME280;26196;52.302;10.572;2022-08-21T14:14:32;100577.56;;;23.35;43.92
40490;BME280;26196;52.302;10.572;2022-08-21T14:18:34;100572.13;;;23.36;44.06
40490;BME280;26196;52.302;10.572;2022-08-21T14:22:47;100564.09;;;23.36;44.08
40490;BME280;26196;52.302;10.572;2022-08-21T14:26:51;100564.84;;;23.39;44.31
40490;BME280;26196;52.302;10.572;2022-08-21T14:30:52;100559.50;;;23.39;43.82
40490;BME280;26196;52.302;10.572;2022-08-21T14:34:53;100566.16;;;23.44;44.20
40490;BME280;26196;52.302;10.572;2022-08-21T14:38:54;100566.88;;;23.46;43.73
40490;BME280;26196;52.302;10.572;2022-08-21T14:42:58;100563.34;;;23.46;44.06
40490;BME280;26196;52.302;10.572;2022-08-21T14:47:03;100564.19;;;23.46;44.26
40490;BME280;26196;52.302;10.572;2022-08-21T14:51:04;100562.88;;;23.52;43.95
40490;BME280;26196;52.302;10.572;2022-08-21T14:55:06;100561.06;;;23.52;44.38
40490;BME280;26196;52.302;10.572;2022-08-21T14:59:07;100563.47;;;23.55;43.94
40490;BME280;26196;52.302;10.572;2022-08-21T15:03:09;100550.94;;;23.56;44.30
40490;BME280;26196;52.302;10.572;2022-08-21T15:07:09;100566.63;;;23.61;44.06
40490;BME280;26196;52.302;10.572;2022-08-21T15:11:13;100556.66;;;23.63;43.97
40490;BME280;26196;52.302;10.572;2022-08-21T15:15:16;100567.94;;;23.66;43.97
40490;BME280;26196;52.302;10.572;2022-08-21T15:19:16;100567.09;;;23.66;43.81
40490;BME280;26196;52.302;10.572;2022-08-21T15:23:17;100563.00;;;23.73;44.14
40490;BME280;26196;52.302;10.572;2022-08-21T15:27:18;100560.19;;;23.74;43.89
40490;BME280;26196;52.302;10.572;2022-08-21T15:31:19;100559.22;;;23.75;44.10
40490;BME280;26196;52.302;10.572;2022-08-21T15:35:19;100560.91;;;23.76;44.36
40490;BME280;26196;52.302;10.572;2022-08-21T15:39:20;100561.75;;;23.77;44.77
40490;BME280;26196;52.302;10.572;2022-08-21T15:43:41;100559.81;;;23.79;44.00
40490;BME280;26196;52.302;10.572;2022-08-21T15:47:44;100562.38;;;23.80;45.64
40490;BME280;26196;52.302;10.572;2022-08-21T15:51:45;100566.63;;;23.83;45.86
40490;BME280;26196;52.302;10.572;2022-08-21T15:55:46;100572.81;;;23.84;45.79
40490;BME280;26196;52.302;10.572;2022-08-21T15:59:49;100562.84;;;23.86;46.29
40490;BME280;26196;52.302;10.572;2022-08-21T16:03:52;100561.75;;;23.88;46.23
40490;BME280;26196;52.302;10.572;2022-08-21T16:07:53;100566.09;;;23.89;46.78
40490;BME280;26196;52.302;10.572;2022-08-21T16:11:54;100569.63;;;23.90;46.12
40490;BME280;26196;52.302;10.572;2022-08-21T16:15:55;100574.69;;;23.93;46.02
40490;BME280;26196;52.302;10.572;2022-08-21T16:19:56;100570.34;;;23.92;43.68
40490;BME280;26196;52.302;10.572;2022-08-21T16:23:57;100572.91;;;23.93;45.04
40490;BME280;26196;52.302;10.572;2022-08-21T16:27:59;100571.06;;;23.94;45.36
40490;BME280;26196;52.302;10.572;2022-08-21T16:32:01;100567.28;;;23.96;45.35
40490;BME280;26196;52.302;10.572;2022-08-21T16:36:02;100567.03;;;23.99;44.17
40490;BME280;26196;52.302;10.572;2022-08-21T16:40:04;100564.38;;;23.99;42.22
40490;BME280;26196;52.302;10.572;2022-08-21T16:44:06;100568.63;;;24.02;43.43
40490;BME280;26196;52.302;10.572;2022-08-21T16:48:07;100564.09;;;24.02;43.09
40490;BME280;26196;52.302;10.572;2022-08-21T16:52:08;100558.03;;;24.00;42.56
40490;BME280;26196;52.302;10.572;2022-08-21T16:56:11;100555.97;;;24.04;42.02
40490;BME280;26196;52.302;10.572;2022-08-21T17:00:12;100558.03;;;24.00;42.63
40490;BME280;26196;52.302;10.572;2022-08-21T17:04:13;100562.16;;;24.05;40.94
40490;BME280;26196;52.302;10.572;2022-08-21T17:08:14;100555.09;;;24.03;42.88
40490;BME280;26196;52.302;10.572;2022-08-21T17:12:15;100553.16;;;24.06;41.25
40490;BME280;26196;52.302;10.572;2022-08-21T17:16:16;100554.13;;;24.05;42.42
40490;BME280;26196;52.302;10.572;2022-08-21T17:20:18;100559.13;;;24.09;40.47
40490;BME280;26196;52.302;10.572;2022-08-21T17:24:19;100561.63;;;24.11;39.74
40490;BME280;26196;52.302;10.572;2022-08-21T17:28:26;100568.94;;;24.09;39.35
40490;BME280;26196;52.302;10.572;2022-08-21T17:32:29;100567.97;;;24.10;39.32
40490;BME280;26196;52.302;10.572;2022-08-21T17:36:31;100565.31;;;24.10;39.10
40490;BME280;26196;52.302;10.572;2022-08-21T17:40:32;100559.13;;;24.09;38.99
40490;BME280;26196;52.302;10.572;2022-08-21T17:44:34;100563.47;;;24.10;39.62
40490;BME280;26196;52.302;10.572;2022-08-21T17:48:36;100566.16;;;24.10;40.66
40490;BME280;26196;52.302;10.572;2022-08-21T17:52:37;100568.56;;;24.13;40.03
40490;BME280;26196;52.302;10.572;2022-08-21T17:56:40;100573.91;;;24.13;39.58
40490;BME280;26196;52.302;10.572;2022-08-21T18:00:41;100567.00;;;24.11;39.38
40490;BME280;26196;52.302;10.572;2022-08-21T18:04:42;100569.66;;;24.11;40.26
40490;BME280;26196;52.302;10.572;2022-08-21T18:08:42;100571.50;;;24.10;39.79
40490;BME280;26196;52.302;10.572;2022-08-21T18:12:43;100577.69;;;24.11;40.37
40490;BME280;26196;52.302;10.572;2022-08-21T18:16:44;100577.84;;;24.09;40.24
40490;BME280;26196;52.302;10.572;2022-08-21T18:20:45;100577.09;;;24.07;40.57
40490;BME280;26196;52.302;10.572;2022-08-21T18:24:46;100582.72;;;24.04;40.39
40490;BME280;26196;52.302;10.572;2022-08-21T18:28:46;100580.88;;;24.05;41.16
40490;BME280;26196;52.302;10.572;2022-08-21T18:32:47;100584.75;;;24.00;41.04
40490;BME280;26196;52.302;10.572;2022-08-21T18:36:49;100595.34;;;24.02;41.09
40490;BME280;26196;52.302;10.572;2022-08-21T18:40:52;100600.09;;;23.98;41.21
40490;BME280;26196;52.302;10.572;2022-08-21T18:44:57;100596.81;;;23.95;41.38
40490;BME280;26196;52.302;10.572;2022-08-21T18:49:00;100605.81;;;23.94;41.14
40490;BME280;26196;52.302;10.572;2022-08-21T18:53:00;100603.53;;;23.89;41.25
40490;BME280;26196;52.302;10.572;2022-08-21T18:57:00;100605.47;;;23.87;41.34
40490;BME280;26196;52.302;10.572;2022-08-21T19:01:01;100617.88;;;23.88;41.49
40490;BME280;26196;52.302;10.572;2022-08-21T19:05:03;100611.78;;;23.86;41.21
40490;BME280;26196;52.302;10.572;2022-08-21T19:09:06;100620.78;;;23.85;41.26
40490;BME280;26196;52.302;10.572;2022-08-21T19:13:12;100612.53;;;23.77;41.46
40490;BME280;26196;52.302;10.572;2022-08-21T19:17:14;100618.59;;;23.79;41.56
40490;BME280;26196;52.302;10.572;2022-08-21T19:21:14;100622.97;;;23.80;41.51
40490;BME280;26196;52.302;10.572;2022-08-21T19:25:15;100625.78;;;23.78;41.58
40490;BME280;26196;52.302;10.572;2022-08-21T19:29:18;100633.66;;;23.80;42.03
40490;BME280;26196;52.302;10.572;2022-08-21T19:33:26;100626.63;;;23.79;41.67
40490;BME280;26196;52.302;10.572;2022-08-21T19:37:28;100631.25;;;23.77;41.82
40490;BME280;26196;52.302;10.572;2022-08-21T19:41:35;100634.75;;;23.77;42.03
40490;BME280;26196;52.302;10.572;2022-08-21T19:45:36;100641.09;;;23.76;41.98
40490;BME280;26196;52.302;10.572;2022-08-21T19:49:37;100639.50;;;23.74;42.19
40490;BME280;26196;52.302;10.572;2022-08-21T19:53:41;100643.16;;;23.73;42.48
40490;BME280;26196;52.302;10.572;2022-08-21T19:57:41;100650.19;;;23.74;42.59
40490;BME280;26196;52.302;10.572;2022-08-21T20:01:42;100634.16;;;23.74;42.69
40490;BME280;26196;52.302;10.572;2022-08-21T20:05:43;100650.19;;;23.74;42.89
40490;BME280;26196;52.302;10.572;2022-08-21T20:09:43;100646.53;;;23.75;43.65
40490;BME280;26196;52.302;10.572;2022-08-21T20:13:44;100652.75;;;23.75;42.97
40490;BME280;26196;52.302;10.572;2022-08-21T20:17:44;100650.53;;;23.69;43.00
40490;BME280;26196;52.302;10.572;2022-08-21T20:21:45;100655.75;;;23.71;43.04
40490;BME280;26196;52.302;10.572;2022-08-21T20:25:45;100661.09;;;23.71;43.00
40490;BME280;26196;52.302;10.572;2022-08-21T20:29:46;100654.91;;;23.70;43.03
40490;BME280;26196;52.302;10.572;2022-08-21T20:33:47;100658.44;;;23.71;43.08
40490;BME280;26196;52.302;10.572;2022-08-21T20:37:48;100648.25;;;23.65;43.00
40490;BME280;26196;52.302;10.572;2022-08-21T20:41:51;100653.34;;;23.68;43.03
40490;BME280;26196;52.302;10.572;2022-08-21T20:45:53;100654.28;;;23.67;42.97
40490;BME280;26196;52.302;10.572;2022-08-21T20:49:57;100651.75;;;23.65;43.17
40490;BME280;26196;52.302;10.572;2022-08-21T20:54:19;100653.59;;;23.65;43.06
40490;BME280;26196;52.302;10.572;2022-08-21T20:58:38;100655.53;;;23.63;43.18
40490;BME280;26196;52.302;10.572;2022-08-21T21:07:16;100660.88;;;23.63;43.11
40490;BME280;26196;52.302;10.572;2022-08-21T21:11:34;100663.53;;;23.63;43.00
40490;BME280;26196;52.302;10.572;2022-08-21T21:15:37;100662.81;;;23.61;43.10
40490;BME280;26196;52.302;10.572;2022-08-21T21:19:55;100659.16;;;23.62;43.00
40490;BME280;26196;52.302;10.572;2022-08-21T21:28:19;100649.94;;;23.54;43.22
40490;BME280;26196;52.302;10.572;2022-08-21T21:32:21;100654.66;;;23.51;43.18
40490;BME280;26196;52.302;10.572;2022-08-21T21:36:36;100665.97;;;23.54;43.13
40490;BME280;26196;52.302;10.572;2022-08-21T21:57:48;100672.63;;;23.49;43.32
40490;BME280;26196;52.302;10.572;2022-08-21T22:02:01;100678.22;;;23.46;43.29
40490;BME280;26196;52.302;10.572;2022-08-21T22:06:11;100677.38;;;23.45;43.04
40490;BME280;26196;52.302;10.572;2022-08-21T22:14:19;100693.66;;;23.42;43.45
40490;BME280;26196;52.302;10.572;2022-08-21T22:18:34;100684.91;;;23.40;43.19
40490;BME280;26196;52.302;10.572;2022-08-21T22:22:37;100688.56;;;23.39;43.47
40490;BME280;26196;52.302;10.572;2022-08-21T22:26:39;100689.66;;;23.36;43.37
40490;BME280;26196;52.302;10.572;2022-08-21T22:30:47;100691.34;;;23.37;43.25
40490;BME280;26196;52.302;10.572;2022-08-21T22:35:17;100692.44;;;23.35;43.45
40490;BME280;26196;52.302;10.572;2022-08-21T22:39:28;100692.66;;;23.32;43.55
40490;BME280;26196;52.302;10.572;2022-08-21T22:43:29;100694.50;;;23.31;43.35
40490;BME280;26196;52.302;10.572;2022-08-21T22:47:37;100692.66;;;23.32;43.22